sensor_id;sensor_type;location;lat;lon;timestamp;pressure;altitude;pressure_sealevel;temperature;humidity
79639;BME280;69114;49.108;8.280;2024-01-10T00:01:45;101422.34;;;-5.25;78.25
79639;BME280;69114;49.108;8.280;2024-01-10T00:04:10;101429.44;;;-5.24;78.53
79639;BME280;69114;49.108;8.280;2024-01-10T00:06:36;101425.91;;;-5.25;79.00
79639;BME280;69114;49.108;8.280;2024-01-10T00:09:01;101425.00;;;-5.17;78.02
79639;BME280;69114;49.108;8.280;2024-01-10T00:11:27;101413.25;;;-5.18;77.71
79639;BME280;69114;49.108;8.280;2024-01-10T00:13:53;101420.03;;;-5.13;77.70
79639;BME280;69114;49.108;8.280;2024-01-10T00:16:20;101411.56;;;-5.19;77.59
79639;BME280;69114;49.108;8.280;2024-01-10T00:18:46;101415.69;;;-5.23;77.82
79639;BME280;69114;49.108;8.280;2024-01-10T00:21:11;101403.91;;;-5.15;77.73
79639;BME280;69114;49.108;8.280;2024-01-10T00:23:36;101408.44;;;-5.07;77.16
79639;BME280;69114;49.108;8.280;2024-01-10T00:26:02;101415.00;;;-5.02;77.14
79639;BME280;69114;49.108;8.280;2024-01-10T00:28:27;101403.66;;;-5.05;77.96
79639;BME280;69114;49.108;8.280;2024-01-10T00:30:52;101410.13;;;-5.06;77.81
79639;BME280;69114;49.108;8.280;2024-01-10T00:33:18;101409.09;;;-5.05;77.43
79639;BME280;69114;49.108;8.280;2024-01-10T00:35:43;101406.72;;;-5.08;77.66
79639;BME280;69114;49.108;8.280;2024-01-10T00:38:09;101409.56;;;-5.02;77.72
79639;BME280;69114;49.108;8.280;2024-01-10T00:40:34;101409.75;;;-5.03;78.00
79639;BME280;69114;49.108;8.280;2024-01-10T00:43:01;101413.94;;;-5.16;77.87
79639;BME280;69114;49.108;8.280;2024-01-10T00:45:26;101404.09;;;-5.17;78.71
79639;BME280;69114;49.108;8.280;2024-01-10T00:47:51;101400.09;;;-5.06;77.72
79639;BME280;69114;49.108;8.280;2024-01-10T00:50:17;101401.00;;;-5.13;78.66
79639;BME280;69114;49.108;8.280;2024-01-10T00:52:44;101406.44;;;-5.13;79.41
79639;BME280;69114;49.108;8.280;2024-01-10T00:55:09;101404.69;;;-5.06;79.55
79639;BME280;69114;49.108;8.280;2024-01-10T00:57:35;101409.09;;;-5.05;79.80
79639;BME280;69114;49.108;8.280;2024-01-10T01:00:00;101398.59;;;-5.08;79.51
79639;BME280;69114;49.108;8.280;2024-01-10T01:02:26;101398.28;;;-5.13;78.83
79639;BME280;69114;49.108;8.280;2024-01-10T01:04:51;101410.78;;;-5.04;79.08
79639;BME280;69114;49.108;8.280;2024-01-10T01:07:16;101400.34;;;-5.16;78.87
79639;BME280;69114;49.108;8.280;2024-01-10T01:09:42;101397.94;;;-5.10;79.21
79639;BME280;69114;49.108;8.280;2024-01-10T01:12:07;101395.22;;;-5.10;79.03
79639;BME280;69114;49.108;8.280;2024-01-10T01:14:32;101400.47;;;-5.09;79.13
79639;BME280;69114;49.108;8.280;2024-01-10T01:16:58;101399.63;;;-5.09;79.38
79639;BME280;69114;49.108;8.280;2024-01-10T01:19:23;101405.34;;;-5.04;79.17
79639;BME280;69114;49.108;8.280;2024-01-10T01:21:49;101400.94;;;-5.05;79.31
79639;BME280;69114;49.108;8.280;2024-01-10T01:24:14;101402.34;;;-5.09;79.02
79639;BME280;69114;49.108;8.280;2024-01-10T01:26:39;101404.22;;;-5.10;79.86
79639;BME280;69114;49.108;8.280;2024-01-10T01:29:05;101404.00;;;-5.08;79.36
79639;BME280;69114;49.108;8.280;2024-01-10T01:31:31;101401.50;;;-5.10;80.12
79639;BME280;69114;49.108;8.280;2024-01-10T01:33:56;101406.72;;;-5.08;80.07
79639;BME280;69114;49.108;8.280;2024-01-10T01:36:22;101398.59;;;-5.08;79.94
79639;BME280;69114;49.108;8.280;2024-01-10T01:38:47;101395.38;;;-5.27;80.54
79639;BME280;69114;49.108;8.280;2024-01-10T01:41:12;101394.34;;;-5.26;80.34
79639;BME280;69114;49.108;8.280;2024-01-10T01:43:40;101388.72;;;-5.24;80.44
79639;BME280;69114;49.108;8.280;2024-01-10T01:46:07;101390.97;;;-5.13;80.03
79639;BME280;69114;49.108;8.280;2024-01-10T01:48:32;101391.53;;;-5.18;80.15
79639;BME280;69114;49.108;8.280;2024-01-10T01:51:02;101396.91;;;-5.09;80.14
79639;BME280;69114;49.108;8.280;2024-01-10T01:53:28;101391.59;;;-5.03;79.92
79639;BME280;69114;49.108;8.280;2024-01-10T01:55:54;101387.72;;;-5.08;79.29
79639;BME280;69114;49.108;8.280;2024-01-10T01:58:21;101391.47;;;-5.09;80.09
79639;BME280;69114;49.108;8.280;2024-01-10T02:00:47;101388.09;;;-5.11;79.31
79639;BME280;69114;49.108;8.280;2024-01-10T02:03:13;101383.50;;;-5.11;79.87
79639;BME280;69114;49.108;8.280;2024-01-10T02:05:39;101385.44;;;-5.20;79.22
79639;BME280;69114;49.108;8.280;2024-01-10T02:08:05;101387.03;;;-5.25;79.33
79639;BME280;69114;49.108;8.280;2024-01-10T02:10:30;101377.38;;;-5.28;79.97
79639;BME280;69114;49.108;8.280;2024-01-10T02:12:56;101372.97;;;-5.29;80.16
79639;BME280;69114;49.108;8.280;2024-01-10T02:15:21;101376.03;;;-5.32;79.84
79639;BME280;69114;49.108;8.280;2024-01-10T02:17:47;101371.63;;;-5.33;79.58
79639;BME280;69114;49.108;8.280;2024-01-10T02:20:14;101384.88;;;-5.30;80.29
79639;BME280;69114;49.108;8.280;2024-01-10T02:22:41;101376.03;;;-5.32;79.74
79639;BME280;69114;49.108;8.280;2024-01-10T02:25:11;101376.53;;;-5.28;79.02
79639;BME280;69114;49.108;8.280;2024-01-10T02:27:37;101374.66;;;-5.28;79.63
79639;BME280;69114;49.108;8.280;2024-01-10T02:30:03;101376.03;;;-5.32;79.15
79639;BME280;69114;49.108;8.280;2024-01-10T02:32:29;101370.44;;;-5.30;79.42
79639;BME280;69114;49.108;8.280;2024-01-10T02:34:55;101374.00;;;-5.30;79.00
79639;BME280;69114;49.108;8.280;2024-01-10T02:37:20;101375.69;;;-5.29;79.24
79639;BME280;69114;49.108;8.280;2024-01-10T02:39:45;101371.94;;;-5.28;79.44
79639;BME280;69114;49.108;8.280;2024-01-10T02:42:11;101374.84;;;-5.29;79.68
79639;BME280;69114;49.108;8.280;2024-01-10T02:44:36;101379.06;;;-5.27;79.43
79639;BME280;69114;49.108;8.280;2024-01-10T02:47:02;101372.78;;;-5.27;79.17
79639;BME280;69114;49.108;8.280;2024-01-10T02:49:27;101370.94;;;-5.27;79.33
79639;BME280;69114;49.108;8.280;2024-01-10T02:51:52;101372.63;;;-5.26;79.65
79639;BME280;69114;49.108;8.280;2024-01-10T02:54:18;101363.13;;;-5.30;79.23
79639;BME280;69114;49.108;8.280;2024-01-10T02:56:43;101365.66;;;-5.28;80.26
79639;BME280;69114;49.108;8.280;2024-01-10T02:59:08;101364.81;;;-5.29;80.30
79639;BME280;69114;49.108;8.280;2024-01-10T03:01:34;101365.31;;;-5.25;80.76
79639;BME280;69114;49.108;8.280;2024-01-10T03:03:59;101363.38;;;-5.17;80.80
79639;BME280;69114;49.108;8.280;2024-01-10T03:06:24;101358.28;;;-5.20;80.87
79639;BME280;69114;49.108;8.280;2024-01-10T03:08:51;101363.44;;;-5.25;81.28
79639;BME280;69114;49.108;8.280;2024-01-10T03:11:16;101356.59;;;-5.21;80.55
79639;BME280;69114;49.108;8.280;2024-01-10T03:13:43;101357.94;;;-5.17;79.88
79639;BME280;69114;49.108;8.280;2024-01-10T03:16:10;101360.53;;;-5.23;80.76
79639;BME280;69114;49.108;8.280;2024-01-10T03:18:36;101352.28;;;-5.30;80.90
79639;BME280;69114;49.108;8.280;2024-01-10T03:21:01;101368.66;;;-5.23;81.21
79639;BME280;69114;49.108;8.280;2024-01-10T03:23:26;101350.88;;;-5.26;81.02
79639;BME280;69114;49.108;8.280;2024-01-10T03:25:52;101351.75;;;-5.10;79.94
79639;BME280;69114;49.108;8.280;2024-01-10T03:28:18;101360.81;;;-5.18;81.37
79639;BME280;69114;49.108;8.280;2024-01-10T03:30:44;101354.09;;;-5.22;81.52
79639;BME280;69114;49.108;8.280;2024-01-10T03:33:09;101354.47;;;-5.10;80.34
79639;BME280;69114;49.108;8.280;2024-01-10T03:35:34;101350.22;;;-5.28;80.68
79639;BME280;69114;49.108;8.280;2024-01-10T03:38:00;101349.75;;;-5.31;81.74
79639;BME280;69114;49.108;8.280;2024-01-10T03:40:26;101346.94;;;-5.23;80.93
79639;BME280;69114;49.108;8.280;2024-01-10T03:42:51;101346.84;;;-5.30;81.17
79639;BME280;69114;49.108;8.280;2024-01-10T03:45:17;101347.50;;;-5.28;81.69
79639;BME280;69114;49.108;8.280;2024-01-10T03:47:46;101344.69;;;-5.34;81.42
79639;BME280;69114;49.108;8.280;2024-01-10T03:50:15;101344.19;;;-5.38;81.66
79639;BME280;69114;49.108;8.280;2024-01-10T03:52:40;101350.16;;;-5.43;82.25
79639;BME280;69114;49.108;8.280;2024-01-10T03:55:05;101351.75;;;-5.48;82.75
79639;BME280;69114;49.108;8.280;2024-01-10T03:57:31;101364.69;;;-5.50;83.88
79639;BME280;69114;49.108;8.280;2024-01-10T03:59:56;101353.03;;;-5.59;83.63
79639;BME280;69114;49.108;8.280;2024-01-10T04:02:21;101360.34;;;-5.59;83.85
79639;BME280;69114;49.108;8.280;2024-01-10T04:04:47;101361.03;;;-5.66;83.59
79639;BME280;69114;49.108;8.280;2024-01-10T04:07:12;101356.78;;;-5.60;83.78
79639;BME280;69114;49.108;8.280;2024-01-10T04:09:37;101361.16;;;-5.59;83.19
79639;BME280;69114;49.108;8.280;2024-01-10T04:12:03;101364.44;;;-5.63;83.33
79639;BME280;69114;49.108;8.280;2024-01-10T04:14:28;101363.50;;;-5.56;83.03
79639;BME280;69114;49.108;8.280;2024-01-10T04:16:53;101360.63;;;-5.54;83.27
79639;BME280;69114;49.108;8.280;2024-01-10T04:19:19;101369.47;;;-5.60;84.00
79639;BME280;69114;49.108;8.280;2024-01-10T04:21:44;101364.25;;;-5.62;83.90
79639;BME280;69114;49.108;8.280;2024-01-10T04:24:10;101366.31;;;-5.64;83.55
79639;BME280;69114;49.108;8.280;2024-01-10T04:26:35;101368.66;;;-5.84;84.17
79639;BME280;69114;49.108;8.280;2024-01-10T04:29:00;101363.22;;;-5.84;84.40
79639;BME280;69114;49.108;8.280;2024-01-10T04:31:26;101366.25;;;-5.79;84.03
79639;BME280;69114;49.108;8.280;2024-01-10T04:33:51;101369.31;;;-5.82;84.12
79639;BME280;69114;49.108;8.280;2024-01-10T04:36:16;101359.34;;;-5.89;84.46
79639;BME280;69114;49.108;8.280;2024-01-10T04:38:41;101360.75;;;-5.94;84.79
79639;BME280;69114;49.108;8.280;2024-01-10T04:41:07;101366.91;;;-6.00;84.36
79639;BME280;69114;49.108;8.280;2024-01-10T04:43:32;101363.69;;;-6.03;84.96
79639;BME280;69114;49.108;8.280;2024-01-10T04:45:57;101366.41;;;-6.03;85.70
79639;BME280;69114;49.108;8.280;2024-01-10T04:48:23;101360.81;;;-6.02;85.25
79639;BME280;69114;49.108;8.280;2024-01-10T04:50:48;101364.72;;;-6.04;85.61
79639;BME280;69114;49.108;8.280;2024-01-10T04:53:13;101364.72;;;-6.04;86.38
79639;BME280;69114;49.108;8.280;2024-01-10T04:55:39;101362.00;;;-6.04;85.93
79639;BME280;69114;49.108;8.280;2024-01-10T04:58:04;101359.66;;;-6.07;85.88
79639;BME280;69114;49.108;8.280;2024-01-10T05:00:29;101366.41;;;-6.03;85.62
79639;BME280;69114;49.108;8.280;2024-01-10T05:02:55;101365.41;;;-6.02;85.94
79639;BME280;69114;49.108;8.280;2024-01-10T05:05:20;101360.97;;;-6.03;86.26
79639;BME280;69114;49.108;8.280;2024-01-10T05:07:49;101368.13;;;-6.02;85.40
79639;BME280;69114;49.108;8.280;2024-01-10T05:10:15;101370.44;;;-5.99;85.80
79639;BME280;69114;49.108;8.280;2024-01-10T05:12:41;101370.63;;;-6.01;85.48
79639;BME280;69114;49.108;8.280;2024-01-10T05:15:06;101373.66;;;-5.96;85.06
79639;BME280;69114;49.108;8.280;2024-01-10T05:17:32;101367.66;;;-5.91;85.78
79639;BME280;69114;49.108;8.280;2024-01-10T05:19:57;101365.72;;;-5.97;85.11
79639;BME280;69114;49.108;8.280;2024-01-10T05:22:22;101368.22;;;-5.96;85.81
79639;BME280;69114;49.108;8.280;2024-01-10T05:24:48;101369.06;;;-5.95;85.99
79639;BME280;69114;49.108;8.280;2024-01-10T05:27:13;101363.56;;;-5.87;85.96
79639;BME280;69114;49.108;8.280;2024-01-10T05:29:39;101362.19;;;-5.83;84.09
79639;BME280;69114;49.108;8.280;2024-01-10T05:32:04;101362.34;;;-5.84;84.56
79639;BME280;69114;49.108;8.280;2024-01-10T05:34:30;101370.50;;;-5.84;85.52
79639;BME280;69114;49.108;8.280;2024-01-10T05:36:55;101356.81;;;-5.91;85.38
79639;BME280;69114;49.108;8.280;2024-01-10T05:39:20;101362.84;;;-5.81;85.07
79639;BME280;69114;49.108;8.280;2024-01-10T05:41:46;101354.75;;;-5.89;85.09
79639;BME280;69114;49.108;8.280;2024-01-10T05:44:12;101357.38;;;-5.73;84.03
79639;BME280;69114;49.108;8.280;2024-01-10T05:46:38;101352.28;;;-5.76;84.20
79639;BME280;69114;49.108;8.280;2024-01-10T05:49:03;101352.97;;;-5.74;84.53
79639;BME280;69114;49.108;8.280;2024-01-10T05:51:30;101356.03;;;-5.77;84.71
79639;BME280;69114;49.108;8.280;2024-01-10T05:53:55;101356.88;;;-5.76;83.90
79639;BME280;69114;49.108;8.280;2024-01-10T05:56:20;101355.69;;;-5.74;84.08
79639;BME280;69114;49.108;8.280;2024-01-10T05:58:46;101354.34;;;-5.78;84.01
79639;BME280;69114;49.108;8.280;2024-01-10T06:01:11;101361.97;;;-5.73;83.54
79639;BME280;69114;49.108;8.280;2024-01-10T06:03:37;101353.28;;;-5.69;82.75
79639;BME280;69114;49.108;8.280;2024-01-10T06:06:02;101361.13;;;-5.74;83.32
79639;BME280;69114;49.108;8.280;2024-01-10T06:08:28;101361.97;;;-5.73;83.42
79639;BME280;69114;49.108;8.280;2024-01-10T06:10:53;101348.44;;;-5.81;83.86
79639;BME280;69114;49.108;8.280;2024-01-10T06:13:19;101345.97;;;-5.91;84.37
79639;BME280;69114;49.108;8.280;2024-01-10T06:15:44;101352.53;;;-5.85;84.45
79639;BME280;69114;49.108;8.280;2024-01-10T06:18:10;101351.88;;;-5.87;84.61
79639;BME280;69114;49.108;8.280;2024-01-10T06:20:35;101349.47;;;-5.82;84.30
79639;BME280;69114;49.108;8.280;2024-01-10T06:23:03;101354.94;;;-5.90;84.94
79639;BME280;69114;49.108;8.280;2024-01-10T06:25:29;101355.84;;;-5.98;85.54
79639;BME280;69114;49.108;8.280;2024-01-10T06:27:54;101358.03;;;-5.94;86.33
79639;BME280;69114;49.108;8.280;2024-01-10T06:30:20;101357.88;;;-5.92;85.71
79639;BME280;69114;49.108;8.280;2024-01-10T06:32:45;101354.09;;;-5.91;85.64
79639;BME280;69114;49.108;8.280;2024-01-10T06:35:10;101360.28;;;-5.97;86.27
79639;BME280;69114;49.108;8.280;2024-01-10T06:37:35;101353.53;;;-6.01;86.40
79639;BME280;69114;49.108;8.280;2024-01-10T06:40:02;101360.66;;;-6.08;86.87
79639;BME280;69114;49.108;8.280;2024-01-10T06:42:29;101357.59;;;-6.05;86.83
79639;BME280;69114;49.108;8.280;2024-01-10T06:44:55;101370.81;;;-6.02;86.27
79639;BME280;69114;49.108;8.280;2024-01-10T06:47:20;101365.44;;;-6.10;86.62
79639;BME280;69114;49.108;8.280;2024-01-10T06:49:46;101363.88;;;-6.05;86.69
79639;BME280;69114;49.108;8.280;2024-01-10T06:52:11;101368.47;;;-6.05;87.48
79639;BME280;69114;49.108;8.280;2024-01-10T06:54:37;101367.44;;;-6.04;86.88
79639;BME280;69114;49.108;8.280;2024-01-10T06:57:03;101369.06;;;-5.95;86.31
79639;BME280;69114;49.108;8.280;2024-01-10T06:59:29;101370.75;;;-5.94;86.12
79639;BME280;69114;49.108;8.280;2024-01-10T07:01:54;101372.06;;;-5.90;86.69
79639;BME280;69114;49.108;8.280;2024-01-10T07:04:22;101370.03;;;-5.88;85.98
79639;BME280;69114;49.108;8.280;2024-01-10T07:06:49;101367.97;;;-5.86;86.45
79639;BME280;69114;49.108;8.280;2024-01-10T07:09:14;101376.66;;;-5.68;85.51
79639;BME280;69114;49.108;8.280;2024-01-10T07:11:46;101371.72;;;-5.64;85.58
79639;BME280;69114;49.108;8.280;2024-01-10T07:14:13;101382.69;;;-5.57;85.09
79639;BME280;69114;49.108;8.280;2024-01-10T07:16:38;101384.75;;;-5.59;84.68
79639;BME280;69114;49.108;8.280;2024-01-10T07:19:07;101395.97;;;-5.62;84.84
79639;BME280;69114;49.108;8.280;2024-01-10T07:21:32;101395.22;;;-5.56;84.35
79639;BME280;69114;49.108;8.280;2024-01-10T07:23:58;101394.22;;;-5.55;84.75
79639;BME280;69114;49.108;8.280;2024-01-10T07:26:24;101388.81;;;-5.55;84.42
79639;BME280;69114;49.108;8.280;2024-01-10T07:28:50;101392.81;;;-5.51;84.57
79639;BME280;69114;49.108;8.280;2024-01-10T07:31:15;101399.34;;;-5.37;83.67
79639;BME280;69114;49.108;8.280;2024-01-10T07:33:41;101397.16;;;-5.42;84.18
79639;BME280;69114;49.108;8.280;2024-01-10T07:36:06;101403.56;;;-5.35;83.35
79639;BME280;69114;49.108;8.280;2024-01-10T07:38:32;101397.84;;;-5.40;83.92
79639;BME280;69114;49.108;8.280;2024-01-10T07:40:57;101405.56;;;-5.29;83.61
79639;BME280;69114;49.108;8.280;2024-01-10T07:43:24;101398.09;;;-5.27;84.11
79639;BME280;69114;49.108;8.280;2024-01-10T07:45:50;101413.94;;;-5.16;83.67
79639;BME280;69114;49.108;8.280;2024-01-10T07:48:15;101410.88;;;-5.12;83.34
79639;BME280;69114;49.108;8.280;2024-01-10T07:50:40;101404.09;;;-5.17;83.02
79639;BME280;69114;49.108;8.280;2024-01-10T07:53:05;101414.44;;;-5.12;82.74
79639;BME280;69114;49.108;8.280;2024-01-10T07:55:31;101412.63;;;-5.20;83.46
79639;BME280;69114;49.108;8.280;2024-01-10T07:57:57;101415.97;;;-5.18;83.35
79639;BME280;69114;49.108;8.280;2024-01-10T08:00:22;101421.41;;;-5.18;83.93
79639;BME280;69114;49.108;8.280;2024-01-10T08:02:48;101421.13;;;-5.23;83.87
79639;BME280;69114;49.108;8.280;2024-01-10T08:05:14;101431.81;;;-5.21;84.03
79639;BME280;69114;49.108;8.280;2024-01-10T08:07:40;101425.16;;;-5.19;84.07
79639;BME280;69114;49.108;8.280;2024-01-10T08:10:06;101420.69;;;-5.11;83.68
79639;BME280;69114;49.108;8.280;2024-01-10T08:12:33;101424.44;;;-5.12;84.13
79639;BME280;69114;49.108;8.280;2024-01-10T08:14:58;101423.03;;;-5.08;84.04
79639;BME280;69114;49.108;8.280;2024-01-10T08:17:23;101432.91;;;-5.07;84.52
79639;BME280;69114;49.108;8.280;2024-01-10T08:19:49;101424.44;;;-5.12;84.57
79639;BME280;69114;49.108;8.280;2024-01-10T08:22:14;101425.16;;;-5.19;84.21
79639;BME280;69114;49.108;8.280;2024-01-10T08:24:40;101417.69;;;-5.17;84.81
79639;BME280;69114;49.108;8.280;2024-01-10T08:27:06;101412.25;;;-5.17;85.56
79639;BME280;69114;49.108;8.280;2024-01-10T08:29:31;101413.94;;;-5.16;84.95
79639;BME280;69114;49.108;8.280;2024-01-10T08:31:57;101416.59;;;-5.07;85.02
79639;BME280;69114;49.108;8.280;2024-01-10T08:34:23;101423.94;;;-4.93;84.23
79639;BME280;69114;49.108;8.280;2024-01-10T08:36:56;101429.94;;;-4.83;83.64
79639;BME280;69114;49.108;8.280;2024-01-10T08:39:21;101434.56;;;-4.69;83.46
79639;BME280;69114;49.108;8.280;2024-01-10T08:41:52;101425.09;;;-4.58;82.61
79639;BME280;69114;49.108;8.280;2024-01-10T08:44:21;101427.06;;;-4.52;81.96
79639;BME280;69114;49.108;8.280;2024-01-10T08:46:46;101436.75;;;-4.49;82.01
79639;BME280;69114;49.108;8.280;2024-01-10T08:49:13;101422.31;;;-4.50;81.88
79639;BME280;69114;49.108;8.280;2024-01-10T08:51:38;101438.63;;;-4.35;81.24
79639;BME280;69114;49.108;8.280;2024-01-10T08:54:06;101426.63;;;-4.26;81.39
79639;BME280;69114;49.108;8.280;2024-01-10T08:56:31;101426.22;;;-4.23;80.93
79639;BME280;69114;49.108;8.280;2024-01-10T08:58:56;101431.56;;;-4.15;79.45
79639;BME280;69114;49.108;8.280;2024-01-10T09:01:22;101422.56;;;-4.15;79.07
79639;BME280;69114;49.108;8.280;2024-01-10T09:03:48;101429.13;;;-4.09;79.19
79639;BME280;69114;49.108;8.280;2024-01-10T09:06:13;101428.09;;;-4.08;77.30
79639;BME280;69114;49.108;8.280;2024-01-10T09:08:39;101421.44;;;-4.06;76.27
79639;BME280;69114;49.108;8.280;2024-01-10T09:11:04;101430.72;;;-4.00;76.98
79639;BME280;69114;49.108;8.280;2024-01-10T09:13:30;101430.06;;;-3.88;76.22
79639;BME280;69114;49.108;8.280;2024-01-10T09:15:55;101439.69;;;-3.85;75.57
79639;BME280;69114;49.108;8.280;2024-01-10T09:18:21;101432.19;;;-3.83;74.99
79639;BME280;69114;49.108;8.280;2024-01-10T09:20:46;101422.31;;;-3.69;73.53
79639;BME280;69114;49.108;8.280;2024-01-10T09:23:13;101429.13;;;-3.58;73.65
79639;BME280;69114;49.108;8.280;2024-01-10T09:25:39;101427.03;;;-3.56;73.40
79639;BME280;69114;49.108;8.280;2024-01-10T09:28:04;101424.53;;;-3.58;72.34
79639;BME280;69114;49.108;8.280;2024-01-10T09:30:30;101423.56;;;-3.50;72.44
79639;BME280;69114;49.108;8.280;2024-01-10T09:32:55;101427.97;;;-3.49;72.65
79639;BME280;69114;49.108;8.280;2024-01-10T09:35:21;101435.09;;;-3.48;72.58
79639;BME280;69114;49.108;8.280;2024-01-10T09:37:47;101442.69;;;-3.44;72.38
79639;BME280;69114;49.108;8.280;2024-01-10T09:40:14;101443.81;;;-3.38;71.91
79639;BME280;69114;49.108;8.280;2024-01-10T09:42:39;101439.34;;;-3.24;72.98
79639;BME280;69114;49.108;8.280;2024-01-10T09:45:06;101436.50;;;-3.16;72.90
79639;BME280;69114;49.108;8.280;2024-01-10T09:47:36;101443.50;;;-3.07;72.18
79639;BME280;69114;49.108;8.280;2024-01-10T09:50:02;101446.47;;;-3.02;71.55
79639;BME280;69114;49.108;8.280;2024-01-10T09:52:34;101444.38;;;-3.00;71.51
79639;BME280;69114;49.108;8.280;2024-01-10T09:55:04;101441.31;;;-2.90;71.66
79639;BME280;69114;49.108;8.280;2024-01-10T09:57:30;101449.91;;;-2.93;71.46
79639;BME280;69114;49.108;8.280;2024-01-10T09:59:56;101448.50;;;-2.89;71.32
79639;BME280;69114;49.108;8.280;2024-01-10T10:02:22;101458.00;;;-2.78;71.13
79639;BME280;69114;49.108;8.280;2024-01-10T10:05:02;101435.88;;;-2.90;70.68
79639;BME280;69114;49.108;8.280;2024-01-10T10:07:28;101443.72;;;-2.80;70.21
79639;BME280;69114;49.108;8.280;2024-01-10T10:09:54;101447.94;;;-2.78;70.46
79639;BME280;69114;49.108;8.280;2024-01-10T10:12:22;101433.25;;;-2.77;70.78
79639;BME280;69114;49.108;8.280;2024-01-10T10:14:47;101437.66;;;-2.76;70.17
79639;BME280;69114;49.108;8.280;2024-01-10T10:17:17;101440.66;;;-2.71;70.79
79639;BME280;69114;49.108;8.280;2024-01-10T10:19:43;101446.38;;;-2.66;70.41
79639;BME280;69114;49.108;8.280;2024-01-10T10:22:10;101427.91;;;-2.64;68.75
79639;BME280;69114;49.108;8.280;2024-01-10T10:24:35;101440.13;;;-2.60;69.85
79639;BME280;69114;49.108;8.280;2024-01-10T10:27:01;101433.03;;;-2.54;69.02
79639;BME280;69114;49.108;8.280;2024-01-10T10:29:26;101437.63;;;-2.54;69.30
79639;BME280;69114;49.108;8.280;2024-01-10T10:31:52;101438.13;;;-2.44;69.98
79639;BME280;69114;49.108;8.280;2024-01-10T10:34:21;101435.63;;;-2.39;69.55
79639;BME280;69114;49.108;8.280;2024-01-10T10:36:48;101437.97;;;-2.36;69.24
79639;BME280;69114;49.108;8.280;2024-01-10T10:39:16;101441.16;;;-2.33;68.98
79639;BME280;69114;49.108;8.280;2024-01-10T10:41:42;101437.66;;;-2.20;67.59
79639;BME280;69114;49.108;8.280;2024-01-10T10:44:09;101436.78;;;-2.27;68.44
79639;BME280;69114;49.108;8.280;2024-01-10T10:46:36;101439.06;;;-2.30;68.49
79639;BME280;69114;49.108;8.280;2024-01-10T10:49:06;101431.84;;;-2.38;68.52
79639;BME280;69114;49.108;8.280;2024-01-10T10:51:36;101436.69;;;-2.40;69.56
79639;BME280;69114;49.108;8.280;2024-01-10T10:54:03;101435.47;;;-2.31;69.64
79639;BME280;69114;49.108;8.280;2024-01-10T10:56:33;101432.41;;;-2.15;69.04
79639;BME280;69114;49.108;8.280;2024-01-10T10:58:59;101432.66;;;-2.10;68.62
79639;BME280;69114;49.108;8.280;2024-01-10T11:01:26;101429.13;;;-2.03;67.69
79639;BME280;69114;49.108;8.280;2024-01-10T11:03:53;101433.78;;;-1.97;68.43
79639;BME280;69114;49.108;8.280;2024-01-10T11:06:19;101430.47;;;-1.86;68.17
79639;BME280;69114;49.108;8.280;2024-01-10T11:08:50;101420.22;;;-1.77;67.83
79639;BME280;69114;49.108;8.280;2024-01-10T11:20:34;101437.34;;;-1.42;64.69
79639;BME280;69114;49.108;8.280;2024-01-10T11:25:59;101431.69;;;-1.41;65.73
79639;BME280;69114;49.108;8.280;2024-01-10T11:28:25;101427.72;;;-1.25;64.40
79639;BME280;69114;49.108;8.280;2024-01-10T11:30:53;101437.38;;;-1.29;65.48
79639;BME280;69114;49.108;8.280;2024-01-10T11:33:23;101433.38;;;-1.26;65.40
79639;BME280;69114;49.108;8.280;2024-01-10T11:38:59;101438.03;;;-1.27;65.50
79639;BME280;69114;49.108;8.280;2024-01-10T11:41:31;101436.97;;;-1.26;65.04
79639;BME280;69114;49.108;8.280;2024-01-10T11:46:48;101418.69;;;-1.12;64.32
79639;BME280;69114;49.108;8.280;2024-01-10T11:49:16;101421.63;;;-1.00;63.76
79639;BME280;69114;49.108;8.280;2024-01-10T11:51:43;101418.91;;;-1.07;63.29
79639;BME280;69114;49.108;8.280;2024-01-10T11:54:08;101408.81;;;-1.07;64.09
79639;BME280;69114;49.108;8.280;2024-01-10T11:56:41;101398.72;;;-1.06;64.18
79639;BME280;69114;49.108;8.280;2024-01-10T11:59:11;101409.66;;;-0.99;63.77
79639;BME280;69114;49.108;8.280;2024-01-10T12:01:41;101419.75;;;-0.93;63.72
79639;BME280;69114;49.108;8.280;2024-01-10T12:04:07;101417.44;;;-0.96;63.92
79639;BME280;69114;49.108;8.280;2024-01-10T12:06:36;101408.81;;;-1.00;64.05
79639;BME280;69114;49.108;8.280;2024-01-10T12:09:03;101413.44;;;-0.87;63.70
79639;BME280;69114;49.108;8.280;2024-01-10T12:11:38;101411.34;;;-0.79;63.24
79639;BME280;69114;49.108;8.280;2024-01-10T12:14:04;101406.91;;;-0.60;64.26
79639;BME280;69114;49.108;8.280;2024-01-10T12:16:32;101401.81;;;0.22;61.80
79639;BME280;69114;49.108;8.280;2024-01-10T12:18:57;101394.41;;;1.24;57.18
79639;BME280;69114;49.108;8.280;2024-01-10T12:21:23;101402.41;;;1.69;56.17
79639;BME280;69114;49.108;8.280;2024-01-10T12:23:48;101398.03;;;2.53;52.65
79639;BME280;69114;49.108;8.280;2024-01-10T12:26:14;101400.63;;;2.78;51.24
79639;BME280;69114;49.108;8.280;2024-01-10T12:28:40;101393.66;;;3.29;51.55
79639;BME280;69114;49.108;8.280;2024-01-10T12:31:07;101397.63;;;3.33;50.33
79639;BME280;69114;49.108;8.280;2024-01-10T12:33:33;101388.38;;;3.51;48.62
79639;BME280;69114;49.108;8.280;2024-01-10T12:36:04;101397.16;;;3.48;49.23
79639;BME280;69114;49.108;8.280;2024-01-10T12:38:30;101397.34;;;3.93;48.11
79639;BME280;69114;49.108;8.280;2024-01-10T12:40:57;101384.75;;;3.97;48.47
79639;BME280;69114;49.108;8.280;2024-01-10T12:43:22;101389.13;;;3.58;49.47
79639;BME280;69114;49.108;8.280;2024-01-10T12:45:47;101383.84;;;4.89;45.81
79639;BME280;69114;49.108;8.280;2024-01-10T12:48:13;101372.28;;;4.92;45.00
79639;BME280;69114;49.108;8.280;2024-01-10T12:50:42;101370.81;;;4.73;45.06
79639;BME280;69114;49.108;8.280;2024-01-10T12:53:07;101374.69;;;4.43;46.25
79639;BME280;69114;49.108;8.280;2024-01-10T12:55:32;101376.88;;;4.29;46.20
79639;BME280;69114;49.108;8.280;2024-01-10T12:57:58;101376.16;;;4.62;46.97
79639;BME280;69114;49.108;8.280;2024-01-10T13:00:26;101372.22;;;4.58;46.60
79639;BME280;69114;49.108;8.280;2024-01-10T13:02:51;101379.53;;;3.60;48.78